createdAt,value
2019-04-25T00:00:02.042Z,12.75
2019-04-25T00:02:32.516Z,8.63
2019-04-25T00:05:01.331Z,4.72
2019-04-25T00:07:32.805Z,4.72
2019-04-25T00:10:01.755Z,6.42
2019-04-25T00:12:30.231Z,7.15
2019-04-25T00:14:58.665Z,7.00
2019-04-25T00:17:27.180Z,5.70
2019-04-25T00:19:55.611Z,6.80
2019-04-25T00:22:32.248Z,3.50
2019-04-25T00:25:14.755Z,5.05
2019-04-25T00:27:32.849Z,3.17
2019-04-25T00:30:01.717Z,6.80
2019-04-25T00:32:31.557Z,6.28
2019-04-25T00:35:01.486Z,4.08
2019-04-25T00:37:32.201Z,4.83
2019-04-25T00:40:01.491Z,8.58
2019-04-25T00:42:31.893Z,6.25
2019-04-25T00:45:02.387Z,4.75
2019-04-25T00:47:31.547Z,6.62
2019-04-25T00:50:00.105Z,9.00
2019-04-25T00:52:28.545Z,7.67
2019-04-25T00:54:56.976Z,9.18
2019-04-25T00:57:26.080Z,7.33
2019-04-25T00:59:59.288Z,12.20
2019-04-25T01:02:47.342Z,6.75
2019-04-25T01:05:15.866Z,6.45
2019-04-25T01:07:44.588Z,5.90
2019-04-25T01:10:13.738Z,7.20
2019-04-25T01:12:42.464Z,11.83
2019-04-25T01:15:32.030Z,13.43
2019-04-25T01:18:01.198Z,9.90
2019-04-25T01:20:29.835Z,24.37
2019-04-25T01:23:00.809Z,18.15
2019-04-25T01:25:38.553Z,15.23
2019-04-25T01:27:58.604Z,13.72
2019-04-25T01:30:28.001Z,10.65
2019-04-25T01:32:56.721Z,12.88
2019-04-25T01:35:26.973Z,6.03
2019-04-25T01:37:57.407Z,6.45
2019-04-25T01:40:27.836Z,3.92
2019-04-25T01:43:14.957Z,4.33
2019-04-25T01:45:43.940Z,5.28
2019-04-25T01:48:13.614Z,3.58
2019-04-25T01:50:43.759Z,2.95
2019-04-25T01:53:12.362Z,3.62
2019-04-25T01:55:51.783Z,2.40
2019-04-25T01:58:13.561Z,4.75
2019-04-25T02:00:46.628Z,3.92
2019-04-25T02:03:15.055Z,4.28
2019-04-25T02:05:43.886Z,3.02
2019-04-25T02:08:14.190Z,3.05
2019-04-25T02:10:44.552Z,3.08
2019-04-25T02:13:20.324Z,3.25
2019-04-25T02:15:49.021Z,2.50
2019-04-25T02:18:17.786Z,2.27
2019-04-25T02:20:46.588Z,2.67
2019-04-25T02:23:15.016Z,3.27
2019-04-25T02:25:44.274Z,4.35
2019-04-25T02:28:13.934Z,3.55
2019-04-25T02:30:45.320Z,5.10
2019-04-25T02:33:14.194Z,4.78
2019-04-25T02:35:46.171Z,5.72
2019-04-25T02:38:14.729Z,10.25
2019-04-25T02:40:45.434Z,6.65
2019-04-25T02:43:14.239Z,5.65
2019-04-25T02:45:55.483Z,7.47
2019-04-25T02:48:34.494Z,6.25
2019-04-25T02:51:10.214Z,7.17
2019-04-25T02:53:44.639Z,7.42
2019-04-25T02:56:29.461Z,4.37
2019-04-25T02:58:44.317Z,3.87
2019-04-25T03:01:21.646Z,4.17
2019-04-25T03:03:46.402Z,4.60
2019-04-25T03:06:15.326Z,4.53
2019-04-25T03:08:44.868Z,7.15
2019-04-25T03:11:15.024Z,8.00
2019-04-25T03:13:44.172Z,4.97
2019-04-25T03:16:14.003Z,5.00
2019-04-25T03:18:57.935Z,8.33
2019-04-25T03:21:29.537Z,5.20
2019-04-25T03:23:58.622Z,4.58
2019-04-25T03:26:37.874Z,5.03
2019-04-25T03:28:58.836Z,5.92
2019-04-25T03:31:28.103Z,7.35
2019-04-25T03:33:56.616Z,7.10
2019-04-25T03:36:25.365Z,7.30
2019-04-25T03:38:55.997Z,8.53
2019-04-25T03:41:24.786Z,7.62
2019-04-25T03:43:54.183Z,8.48
2019-04-25T03:46:23.372Z,8.70
2019-04-25T03:48:51.951Z,8.35
2019-04-25T03:51:20.668Z,7.08
2019-04-25T03:53:49.094Z,5.97
2019-04-25T03:56:17.543Z,7.92
2019-04-25T03:58:46.232Z,6.97
2019-04-25T04:01:15.841Z,9.43
2019-04-25T04:03:44.633Z,7.95
2019-04-25T04:06:15.231Z,8.83
2019-04-25T04:08:44.283Z,8.78
2019-04-25T04:11:14.561Z,10.25
2019-04-25T04:13:43.995Z,7.45
2019-04-25T04:16:15.423Z,8.30
2019-04-25T04:18:45.994Z,6.78
2019-04-25T04:21:20.300Z,6.62
2019-04-25T04:23:50.388Z,8.68
2019-04-25T04:26:19.050Z,5.75
2019-04-25T04:28:47.476Z,6.45
2019-04-25T04:31:16.589Z,7.00
2019-04-25T04:33:45.395Z,4.75
2019-04-25T04:36:15.653Z,3.83
2019-04-25T04:38:44.351Z,4.20
2019-04-25T04:41:14.295Z,5.08
2019-04-25T04:43:44.132Z,4.33
2019-04-25T04:46:14.179Z,3.45
2019-04-25T04:48:43.835Z,4.25
2019-04-25T04:51:14.459Z,2.50
2019-04-25T04:53:43.836Z,2.50
2019-04-25T04:56:14.197Z,4.28
2019-04-25T04:58:43.209Z,5.40
2019-04-25T05:01:13.049Z,2.37
2019-04-25T05:03:49.449Z,4.35
2019-04-25T05:06:24.026Z,3.58
2019-04-25T05:08:54.927Z,4.83
2019-04-25T05:11:25.326Z,3.47
2019-04-25T05:13:54.783Z,3.60
2019-04-25T05:16:23.898Z,4.10
2019-04-25T05:18:55.095Z,4.83
2019-04-25T05:21:23.145Z,2.95
2019-04-25T05:23:51.849Z,4.33
2019-04-25T05:26:21.052Z,5.67
2019-04-25T05:28:49.499Z,4.70
2019-04-25T05:31:19.853Z,4.42
2019-04-25T05:33:48.288Z,1.90
2019-04-25T05:36:17.614Z,3.98
2019-04-25T05:38:47.252Z,3.33
2019-04-25T05:41:18.184Z,3.50
2019-04-25T05:43:46.747Z,6.10
2019-04-25T05:46:15.489Z,3.45
2019-04-25T05:48:44.199Z,3.20
2019-04-25T05:51:13.624Z,1.87
2019-04-25T05:53:43.352Z,1.95
2019-04-25T05:56:11.877Z,2.65
2019-04-25T05:58:40.563Z,1.40
2019-04-25T06:01:08.994Z,1.45
2019-04-25T06:03:37.729Z,2.08
2019-04-25T06:06:06.328Z,3.65
2019-04-25T06:08:37.337Z,2.25
2019-04-25T06:11:07.708Z,1.20
2019-04-25T06:13:37.792Z,1.70
2019-04-25T06:16:08.109Z,1.25
2019-04-25T06:18:40.660Z,1.92
2019-04-25T06:21:10.728Z,1.67
2019-04-25T06:23:41.733Z,1.90
2019-04-25T06:26:22.825Z,2.17
2019-04-25T06:28:52.439Z,1.57
2019-04-25T06:31:14.466Z,2.98
2019-04-25T06:33:43.375Z,2.65
2019-04-25T06:36:12.008Z,3.35
2019-04-25T06:38:40.490Z,3.20
2019-04-25T06:41:08.974Z,1.22
2019-04-25T06:43:39.037Z,2.65
2019-04-25T06:46:17.909Z,2.15
2019-04-25T06:48:48.008Z,1.52
2019-04-25T06:51:16.428Z,2.33
2019-04-25T06:53:45.205Z,2.02
2019-04-25T06:56:13.997Z,2.00
2019-04-25T06:58:43.837Z,2.10
2019-04-25T07:01:13.666Z,6.90
2019-04-25T07:03:44.059Z,3.60
2019-04-25T07:06:12.971Z,4.65
2019-04-25T07:08:44.799Z,3.15
2019-04-25T07:11:14.409Z,2.20
2019-04-25T07:13:43.892Z,3.30
2019-04-25T07:16:13.403Z,5.40
2019-04-25T07:18:43.489Z,4.67
2019-04-25T07:21:12.138Z,4.00
2019-04-25T07:23:40.843Z,2.95
2019-04-25T07:26:13.514Z,3.70
2019-04-25T07:28:47.325Z,5.28
2019-04-25T07:31:25.109Z,5.67
2019-04-25T07:33:57.673Z,4.87
2019-04-25T07:36:26.105Z,4.45
2019-04-25T07:39:05.732Z,4.62
2019-04-25T07:41:25.961Z,5.10
2019-04-25T07:43:54.509Z,3.65
2019-04-25T07:46:23.503Z,5.72
2019-04-25T07:48:53.519Z,3.58
2019-04-25T07:51:23.727Z,4.92
2019-04-25T07:53:53.491Z,3.30
2019-04-25T07:56:22.224Z,6.40
2019-04-25T07:58:52.742Z,2.95
2019-04-25T08:01:21.077Z,3.98
2019-04-25T08:03:49.524Z,3.27
2019-04-25T08:06:17.944Z,6.28
2019-04-25T08:08:46.732Z,6.42
2019-04-25T08:11:15.200Z,3.15
2019-04-25T08:14:03.420Z,2.75
2019-04-25T08:16:34.787Z,5.47
2019-04-25T08:19:04.581Z,4.08
2019-04-25T08:21:34.492Z,4.78
2019-04-25T08:24:04.722Z,3.60
2019-04-25T08:26:35.013Z,3.42
2019-04-25T08:29:25.552Z,6.03
2019-04-25T08:31:55.036Z,5.10
2019-04-25T08:34:24.338Z,5.10
2019-04-25T08:37:18.965Z,4.78
2019-04-25T08:39:44.907Z,6.85
2019-04-25T08:42:13.059Z,3.75
2019-04-25T08:44:43.768Z,4.80
2019-04-25T08:47:14.452Z,4.30
2019-04-25T08:49:46.007Z,4.37
2019-04-25T08:52:14.910Z,3.77
2019-04-25T08:54:47.364Z,3.55
2019-04-25T08:57:19.980Z,3.85
2019-04-25T08:59:56.524Z,3.10
2019-04-25T09:02:37.480Z,5.17
2019-04-25T09:05:24.222Z,4.60
2019-04-25T09:07:54.342Z,8.68
2019-04-25T09:10:23.724Z,5.33
2019-04-25T09:12:53.766Z,5.72
2019-04-25T09:15:23.994Z,5.00
2019-04-25T09:17:54.694Z,5.90
2019-04-25T09:20:23.623Z,3.98
2019-04-25T09:22:54.095Z,6.45
2019-04-25T09:25:23.807Z,4.50
2019-04-25T09:27:54.327Z,4.25
2019-04-25T09:30:24.072Z,4.45
2019-04-25T09:32:53.479Z,5.67
2019-04-25T09:35:23.604Z,5.75
2019-04-25T09:37:53.594Z,5.17
2019-04-25T09:40:23.838Z,3.58
2019-04-25T09:42:53.720Z,4.00
2019-04-25T09:45:26.283Z,6.25
2019-04-25T09:48:25.360Z,3.58
2019-04-25T09:53:51.429Z,5.72
2019-04-25T09:56:27.949Z,4.03
2019-04-25T09:59:04.513Z,2.83
2019-04-25T10:01:33.929Z,4.83
2019-04-25T10:04:03.101Z,7.25
2019-04-25T10:06:33.299Z,4.60
2019-04-25T10:09:02.072Z,2.25
2019-04-25T10:11:30.500Z,3.02
2019-04-25T10:14:02.031Z,2.45
2019-04-25T10:16:30.457Z,1.27
2019-04-25T10:18:59.157Z,1.72
2019-04-25T10:21:28.067Z,2.25
2019-04-25T10:23:56.529Z,2.22
2019-04-25T10:26:25.943Z,2.87
2019-04-25T10:28:54.638Z,3.58
2019-04-25T10:31:23.803Z,3.47
2019-04-25T10:33:53.529Z,3.35
2019-04-25T10:36:22.999Z,2.98
2019-04-25T10:39:04.030Z,1.62
2019-04-25T10:41:24.459Z,2.05
2019-04-25T10:43:54.663Z,5.08
2019-04-25T10:46:24.479Z,3.62
2019-04-25T10:48:55.923Z,2.30
2019-04-25T10:51:24.009Z,2.42
2019-04-25T10:53:53.869Z,2.10
2019-04-25T10:56:24.342Z,3.47
2019-04-25T10:58:54.904Z,2.77
2019-04-25T11:01:24.393Z,5.22
2019-04-25T11:03:55.721Z,4.90
2019-04-25T11:06:26.398Z,2.98
2019-04-25T11:08:56.490Z,2.80
2019-04-25T11:11:25.385Z,3.20
2019-04-25T11:13:56.690Z,1.62
2019-04-25T11:16:25.452Z,2.67
2019-04-25T11:18:54.858Z,3.52
2019-04-25T11:21:24.254Z,4.35
2019-04-25T11:23:55.316Z,2.10
2019-04-25T11:26:23.568Z,2.75
2019-04-25T11:28:52.129Z,3.17
2019-04-25T11:31:23.518Z,4.58
2019-04-25T11:33:54.274Z,3.20
2019-04-25T11:36:24.762Z,2.27
2019-04-25T11:39:11.019Z,2.33
2019-04-25T11:41:39.877Z,2.52
2019-04-25T11:44:08.340Z,2.98
2019-04-25T11:46:39.259Z,4.33
2019-04-25T11:49:08.692Z,3.45
2019-04-25T11:51:37.184Z,2.67
2019-04-25T11:54:06.008Z,3.25
2019-04-25T11:56:34.776Z,3.37
2019-04-25T11:59:04.524Z,2.45
2019-04-25T12:01:33.662Z,2.33
2019-04-25T12:04:03.996Z,3.20
2019-04-25T12:06:33.537Z,1.95
2019-04-25T12:09:04.022Z,2.83
2019-04-25T12:11:34.077Z,1.67
2019-04-25T12:14:04.304Z,1.25
2019-04-25T12:16:33.393Z,1.90
2019-04-25T12:19:01.833Z,1.72
2019-04-25T12:21:30.565Z,2.37
2019-04-25T12:24:01.699Z,2.10
2019-04-25T12:26:29.155Z,2.92
2019-04-25T12:28:57.856Z,2.45
2019-04-25T12:31:26.287Z,2.80
2019-04-25T12:33:56.386Z,3.05
2019-04-25T12:36:25.478Z,3.62
2019-04-25T12:38:54.538Z,1.40
2019-04-25T12:41:24.021Z,3.70
2019-04-25T12:43:59.870Z,2.75
2019-04-25T12:46:30.001Z,1.42
2019-04-25T12:48:58.740Z,2.77
2019-04-25T12:51:27.168Z,3.33
2019-04-25T12:53:56.084Z,4.62
2019-04-25T12:56:24.841Z,1.75
2019-04-25T12:58:53.871Z,1.82
2019-04-25T13:01:24.770Z,3.08
2019-04-25T13:03:55.375Z,4.15
2019-04-25T13:06:24.280Z,5.45
2019-04-25T13:08:54.247Z,2.50
2019-04-25T13:11:23.924Z,1.57
2019-04-25T13:13:52.907Z,2.00
2019-04-25T13:16:21.417Z,1.92
2019-04-25T13:18:51.117Z,3.85
2019-04-25T13:21:19.800Z,4.55
2019-04-25T13:23:48.312Z,2.00
2019-04-25T13:26:18.403Z,3.62
2019-04-25T13:28:54.366Z,4.00
2019-04-25T13:31:28.292Z,2.40
2019-04-25T13:34:01.666Z,2.77
2019-04-25T13:38:59.968Z,1.52
2019-04-25T13:41:28.469Z,3.60
2019-04-25T13:43:57.728Z,2.52
2019-04-25T13:46:27.582Z,3.87
2019-04-25T13:48:56.352Z,5.33
2019-04-25T13:51:26.099Z,2.12
2019-04-25T13:53:55.660Z,2.30
2019-04-25T13:56:25.851Z,2.75
2019-04-25T13:58:55.361Z,3.95
2019-04-25T14:01:25.860Z,3.37
2019-04-25T14:03:54.468Z,2.20
2019-04-25T14:06:23.986Z,2.67
2019-04-25T14:08:53.365Z,3.52
2019-04-25T14:11:23.959Z,1.55
2019-04-25T14:13:52.669Z,2.80
2019-04-25T14:16:39.239Z,1.17
2019-04-25T14:19:22.545Z,5.78
2019-04-25T14:24:28.117Z,9.20
2019-04-25T14:26:53.780Z,6.50
2019-04-25T14:29:22.404Z,4.20
2019-04-25T14:31:51.388Z,2.83
2019-04-25T14:34:21.021Z,3.52
2019-04-25T14:36:50.700Z,3.08
2019-04-25T14:39:19.844Z,5.25
2019-04-25T14:41:48.276Z,1.50
2019-04-25T14:44:16.795Z,5.92
2019-04-25T14:46:45.561Z,6.20
2019-04-25T14:49:14.388Z,3.77
2019-04-25T14:51:43.257Z,5.37
2019-04-25T14:54:13.345Z,3.70
2019-04-25T14:56:43.703Z,2.87
2019-04-25T14:59:14.016Z,2.22
2019-04-25T15:01:44.877Z,3.95
2019-04-25T15:04:12.802Z,3.15
2019-04-25T15:06:41.243Z,5.28
2019-04-25T15:09:10.138Z,3.35
2019-04-25T15:11:38.581Z,3.37
2019-04-25T15:14:07.008Z,2.85
2019-04-25T15:16:35.434Z,2.15
2019-04-25T15:19:04.571Z,2.33
2019-04-25T15:21:33.947Z,2.25
2019-04-25T15:24:02.528Z,6.15
2019-04-25T15:26:31.180Z,4.35
2019-04-25T15:29:00.049Z,4.05
2019-04-25T15:31:30.154Z,5.80
2019-04-25T15:33:59.071Z,3.10
2019-04-25T15:36:33.378Z,2.42
2019-04-25T15:39:04.421Z,5.35
2019-04-25T15:41:43.656Z,7.05
2019-04-25T15:44:23.087Z,6.95
2019-04-25T15:46:53.148Z,2.25
2019-04-25T15:49:21.747Z,6.22
2019-04-25T15:51:50.492Z,6.37
2019-04-25T15:54:18.921Z,4.05
2019-04-25T15:56:47.453Z,2.50
2019-04-25T15:59:15.880Z,4.75
2019-04-25T16:01:44.884Z,7.40
2019-04-25T16:04:13.635Z,3.22
2019-04-25T16:06:42.136Z,5.62
2019-04-25T16:09:10.658Z,6.53
2019-04-25T16:11:39.154Z,6.03
2019-04-25T16:14:07.581Z,4.33
2019-04-25T16:16:36.025Z,3.92
2019-04-25T16:19:05.292Z,4.90
2019-04-25T16:21:33.736Z,4.72
2019-04-25T16:24:02.371Z,6.47
2019-04-25T16:26:31.485Z,5.40
2019-04-25T16:28:59.949Z,1.47
2019-04-25T16:31:29.202Z,3.02
2019-04-25T16:33:58.121Z,3.87
2019-04-25T16:36:26.564Z,3.70
2019-04-25T16:38:54.992Z,4.05
2019-04-25T16:41:23.595Z,5.08
2019-04-25T16:43:54.004Z,3.85
2019-04-25T16:46:23.320Z,4.22
2019-04-25T16:48:51.765Z,4.20
2019-04-25T16:51:20.595Z,2.72
2019-04-25T16:53:49.040Z,2.30
2019-04-25T16:56:18.074Z,2.42
2019-04-25T16:58:46.546Z,2.65
2019-04-25T17:01:16.070Z,2.62
2019-04-25T17:03:45.097Z,5.45
2019-04-25T17:06:13.718Z,1.57
2019-04-25T17:08:42.141Z,5.72
2019-04-25T17:11:10.912Z,3.52
2019-04-25T17:13:42.505Z,4.42
2019-04-25T17:16:29.557Z,2.77
2019-04-25T17:19:03.287Z,4.58
2019-04-25T17:21:32.452Z,3.70
2019-04-25T17:24:01.088Z,2.25
2019-04-25T17:26:30.404Z,2.33
2019-04-25T17:29:01.484Z,2.52
2019-04-25T17:31:43.889Z,2.92
2019-04-25T17:34:14.101Z,2.92
2019-04-25T17:36:44.489Z,5.58
2019-04-25T17:39:15.213Z,4.55
2019-04-25T17:41:43.653Z,3.42
2019-04-25T17:44:12.533Z,3.98
2019-04-25T17:46:41.905Z,3.00
2019-04-25T17:49:12.891Z,6.97
2019-04-25T17:51:42.040Z,3.10
2019-04-25T17:54:10.532Z,5.72
2019-04-25T17:56:38.984Z,4.37
2019-04-25T17:59:07.920Z,5.03
2019-04-25T18:01:37.951Z,7.35
2019-04-25T18:04:06.857Z,3.25
2019-04-25T18:06:35.697Z,4.92
2019-04-25T18:09:05.852Z,3.60
2019-04-25T18:11:36.014Z,3.80
2019-04-25T18:14:06.310Z,2.70
2019-04-25T18:16:40.337Z,4.45
2019-04-25T18:21:57.828Z,7.95
2019-04-25T18:24:43.878Z,8.98
2019-04-25T18:27:14.275Z,8.78
2019-04-25T18:29:43.674Z,5.70
2019-04-25T18:32:12.384Z,5.90
2019-04-25T18:35:00.705Z,4.20
2019-04-25T18:37:47.406Z,6.58
2019-04-25T18:40:24.381Z,5.45
2019-04-25T18:42:54.826Z,6.30
2019-04-25T18:45:24.901Z,4.33
2019-04-25T18:47:53.324Z,4.80
2019-04-25T18:50:23.396Z,7.25
2019-04-25T18:53:10.056Z,6.58
2019-04-25T18:55:46.580Z,2.47
2019-04-25T18:58:16.941Z,8.98
2019-04-25T19:00:55.736Z,5.37
2019-04-25T19:03:34.810Z,4.40
2019-04-25T19:06:07.772Z,1.45
2019-04-25T19:08:36.568Z,1.60
2019-04-25T19:11:06.069Z,8.78
2019-04-25T19:13:34.572Z,3.10
2019-04-25T19:16:03.083Z,3.10
2019-04-25T19:18:31.516Z,3.77
2019-04-25T19:20:59.949Z,7.45
2019-04-25T19:23:28.387Z,5.22
2019-04-25T19:25:56.817Z,6.40
2019-04-25T19:28:26.248Z,4.67
2019-04-25T19:30:54.994Z,6.53
2019-04-25T19:33:35.062Z,4.60
2019-04-25T19:35:54.131Z,6.72
2019-04-25T19:38:24.480Z,4.50
2019-04-25T19:41:06.574Z,3.92
2019-04-25T19:43:40.024Z,7.95
2019-04-25T19:46:09.737Z,2.12
2019-04-25T19:48:38.425Z,4.05
2019-04-25T19:51:07.222Z,3.70
2019-04-25T19:53:36.012Z,3.27
2019-04-25T19:56:04.588Z,2.77
2019-04-25T19:58:33.016Z,6.28
2019-04-25T20:01:01.468Z,3.75
2019-04-25T20:03:49.455Z,4.10
2019-04-25T20:09:03.836Z,3.40
2019-04-25T20:11:34.188Z,3.30
2019-04-25T20:14:03.521Z,5.53
2019-04-25T20:16:33.844Z,4.05
2019-04-25T20:19:02.268Z,6.22
2019-04-25T20:21:30.705Z,2.72
2019-04-25T20:23:59.132Z,6.78
2019-04-25T20:26:27.784Z,4.12
2019-04-25T20:28:56.203Z,4.25
2019-04-25T20:31:24.643Z,5.97
2019-04-25T20:34:03.438Z,2.67
2019-04-25T20:36:24.813Z,3.37
2019-04-25T20:38:53.572Z,3.27
2019-04-25T20:41:23.927Z,2.70
2019-04-25T20:43:52.840Z,2.77
2019-04-25T20:46:21.805Z,4.22
2019-04-25T20:48:50.449Z,2.90
2019-04-25T20:51:18.981Z,3.62
2019-04-25T20:53:47.943Z,4.60
2019-04-25T20:56:17.303Z,4.30
2019-04-25T20:58:47.719Z,3.17
2019-04-25T21:01:16.309Z,3.67
2019-04-25T21:03:44.927Z,2.92
2019-04-25T21:06:14.995Z,2.67
2019-04-25T21:08:43.788Z,5.78
2019-04-25T21:11:12.244Z,5.10
2019-04-25T21:13:42.460Z,2.67
2019-04-25T21:16:12.608Z,4.95
2019-04-25T21:18:55.227Z,5.12
2019-04-25T21:21:23.712Z,8.13
2019-04-25T21:23:53.033Z,3.47
2019-04-25T21:26:21.621Z,2.85
2019-04-25T21:28:50.988Z,5.17
2019-04-25T21:31:20.622Z,3.80
2019-04-25T21:33:50.573Z,4.00
2019-04-25T21:36:20.414Z,4.62
2019-04-25T21:38:49.460Z,4.00
2019-04-25T21:41:36.228Z,4.87
2019-04-25T21:44:06.140Z,1.92
2019-04-25T21:46:35.211Z,3.02
2019-04-25T21:49:03.979Z,2.70
2019-04-25T21:51:32.957Z,6.72
2019-04-25T21:54:05.129Z,7.58
2019-04-25T21:56:34.100Z,6.20
2019-04-25T21:59:02.533Z,2.75
2019-04-25T22:01:38.659Z,2.37
2019-04-25T22:04:07.460Z,4.80
2019-04-25T22:06:36.335Z,4.62
2019-04-25T22:09:07.960Z,3.70
2019-04-25T22:11:36.389Z,6.12
2019-04-25T22:14:05.801Z,5.80
2019-04-25T22:16:34.514Z,5.97
2019-04-25T22:19:04.113Z,6.37
2019-04-25T22:21:52.240Z,3.12
2019-04-25T22:24:21.032Z,4.95
2019-04-25T22:26:51.474Z,4.72
2019-04-25T22:29:19.999Z,7.12
2019-04-25T22:32:07.501Z,3.87
2019-04-25T22:34:51.743Z,3.87
2019-04-25T22:37:11.604Z,3.90
2019-04-25T22:39:40.408Z,2.60
2019-04-25T22:42:09.185Z,4.00
2019-04-25T22:44:38.285Z,5.22
2019-04-25T22:47:07.084Z,3.10
2019-04-25T22:49:35.864Z,4.35
2019-04-25T22:52:04.975Z,3.65
2019-04-25T22:54:33.740Z,4.08
2019-04-25T22:57:02.858Z,4.85
2019-04-25T22:59:31.557Z,7.95
2019-04-25T23:02:10.730Z,5.22
2019-04-25T23:04:41.725Z,3.52
2019-04-25T23:07:10.512Z,5.03
2019-04-25T23:09:39.607Z,5.67
2019-04-25T23:12:08.782Z,3.37
2019-04-25T23:14:38.016Z,3.52
2019-04-25T23:17:07.353Z,5.55
2019-04-25T23:19:55.277Z,4.70
2019-04-25T23:22:23.700Z,3.58
2019-04-25T23:25:04.942Z,6.85
2019-04-25T23:27:38.513Z,3.67
2019-04-25T23:30:09.067Z,5.65
2019-04-25T23:32:38.476Z,6.65
2019-04-25T23:35:22.141Z,2.05
2019-04-25T23:37:37.665Z,5.15
2019-04-25T23:40:07.698Z,3.02
2019-04-25T23:42:36.253Z,4.92
2019-04-25T23:45:08.117Z,5.10
2019-04-25T23:47:36.648Z,2.45
2019-04-25T23:50:07.577Z,3.83
2019-04-25T23:52:37.208Z,2.17
2019-04-25T23:55:06.936Z,2.30
2019-04-25T23:57:36.812Z,3.00
